Time;durP1;ratioP1;P1;durP2;ratioP2;P2;SDS_P1;SDS_P2;PMS_P1;PMS_P2;Temp;Humidity;BMP_temperature;BMP_pressure;BME280_temperature;BME280_humidity;BME280_pressure;Samples;Min_cycle;Max_cycle;Signal;HPM_P1;HPM_P2
2021/07/10 00:00:12;;;;;;;;;;;17.00;99.90;;;;;;5025135;28;19917;-74
2021/07/10 00:02:37;;;;;;;;;;;17.00;99.90;;;;;;5031720;28;19913;-75
2021/07/10 00:05:04;;;;;;;;;;;17.00;99.90;;;;;;5027985;28;19916;-75
2021/07/10 00:07:29;;;;;;;;;;;17.00;99.90;;;;;;5033065;28;19916;-75
2021/07/10 00:09:55;;;;;;;;;;;17.10;99.90;;;;;;5030435;28;19916;-75
2021/07/10 00:12:20;;;;;;;;;;;17.10;99.90;;;;;;5035777;28;20358;-74
2021/07/10 00:14:46;;;;;;;;;;;17.10;99.90;;;;;;5031255;28;19913;-74
2021/07/10 00:17:11;;;;;;;;;;;17.10;99.90;;;;;;5033673;28;19935;-73
2021/07/10 00:19:37;;;;;;;;;;;17.10;99.90;;;;;;5035955;28;19931;-73
2021/07/10 00:22:02;;;;;;;;;;;17.20;99.90;;;;;;5035692;28;19913;-73
2021/07/10 00:24:30;;;;;;;;;;;17.20;99.90;;;;;;5035676;28;20272;-74
2021/07/10 00:26:57;;;;;;;;;;;17.20;99.90;;;;;;5023239;28;19978;-73
2021/07/10 00:29:23;;;;;;;;;;;17.20;99.90;;;;;;5050942;28;19909;-73
2021/07/10 00:31:48;;;;;;;;;;;17.20;99.90;;;;;;5033851;28;20380;-73
2021/07/10 00:34:14;;;;;;;;;;;17.30;99.90;;;;;;5034782;28;20341;-73
2021/07/10 00:36:39;;;;;;;;;;;17.30;99.90;;;;;;5033809;28;19935;-73
2021/07/10 00:39:05;;;;;;;;;;;17.30;99.90;;;;;;5034706;28;19959;-73
2021/07/10 00:41:30;;;;;;;;;;;17.30;99.90;;;;;;5034980;28;19931;-73
2021/07/10 00:43:56;;;;;;;;;;;17.30;99.90;;;;;;5035549;28;20406;-75
2021/07/10 00:46:21;;;;;;;;;;;17.20;99.90;;;;;;5034457;28;19916;-74
2021/07/10 00:48:48;;;;;;;;;;;17.20;99.90;;;;;;5049928;28;19909;-73
2021/07/10 00:51:14;;;;;;;;;;;17.30;99.90;;;;;;5047936;28;21225;-74
2021/07/10 00:53:39;;;;;;;;;;;17.30;99.90;;;;;;5035626;28;19905;-74
2021/07/10 00:56:05;;;;;;;;;;;17.30;99.90;;;;;;5035740;28;19916;-73
2021/07/10 00:58:32;;;;;;;;;;;17.40;99.90;;;;;;5035136;28;20032;-73
2021/07/10 01:00:58;;;;;;;;;;;17.30;99.90;;;;;;5049759;28;19931;-74
2021/07/10 01:03:24;;;;;;;;;;;17.30;99.90;;;;;;5034963;28;19913;-74
2021/07/10 01:05:49;;;;;;;;;;;17.20;99.90;;;;;;5035370;28;19909;-74
2021/07/10 01:08:15;;;;;;;;;;;17.20;99.90;;;;;;5035371;28;19937;-74
2021/07/10 01:10:40;;;;;;;;;;;17.20;99.90;;;;;;5035707;28;20464;-73
2021/07/10 01:13:06;;;;;;;;;;;17.20;99.90;;;;;;5034904;28;19913;-74
2021/07/10 01:15:31;;;;;;;;;;;17.10;99.90;;;;;;5034605;28;20251;-74
2021/07/10 01:17:57;;;;;;;;;;;17.20;99.90;;;;;;5034983;28;20371;-74
2021/07/10 01:20:23;;;;;;;;;;;17.20;99.90;;;;;;5035258;28;19909;-74
2021/07/10 01:22:49;;;;;;;;;;;17.20;99.90;;;;;;5036027;28;20369;-74
2021/07/10 01:25:20;;;;;;;;;;;17.20;99.90;;;;;;5050695;28;19904;-73
2021/07/10 01:27:45;;;;;;;;;;;17.30;99.90;;;;;;5035182;28;20365;-74
2021/07/10 01:30:12;;;;;;;;;;;17.30;99.90;;;;;;5035063;28;19905;-75
2021/07/10 01:32:38;;;;;;;;;;;17.40;99.90;;;;;;5044736;28;19953;-73
2021/07/10 01:35:05;;;;;;;;;;;17.30;99.90;;;;;;5042109;28;20307;-74
2021/07/10 01:37:30;;;;;;;;;;;17.20;99.90;;;;;;5034784;28;20353;-74
2021/07/10 01:39:56;;;;;;;;;;;17.20;99.90;;;;;;5033910;28;19952;-74
2021/07/10 01:42:21;;;;;;;;;;;17.20;99.90;;;;;;5033927;28;19913;-74
2021/07/10 01:44:48;;;;;;;;;;;17.20;99.90;;;;;;5034897;28;19915;-74
2021/07/10 01:47:15;;;;;;;;;;;17.10;99.90;;;;;;5035520;28;19952;-75
2021/07/10 01:49:40;;;;;;;;;;;17.10;99.90;;;;;;5038125;28;19962;-75
2021/07/10 01:52:06;;;;;;;;;;;17.00;99.90;;;;;;5039456;28;19916;-74
2021/07/10 01:54:31;;;;;;;;;;;17.00;99.90;;;;;;5036531;28;19909;-74
2021/07/10 01:56:57;;;;;;;;;;;17.00;99.90;;;;;;5036717;28;19919;-75
2021/07/10 01:59:22;;;;;;;;;;;16.90;99.90;;;;;;5052766;28;19917;-75
2021/07/10 02:01:49;;;;;;;;;;;16.90;99.90;;;;;;5036562;28;19924;-74
2021/07/10 02:04:19;;;;;;;;;;;16.90;99.90;;;;;;5037075;28;20427;-74
2021/07/10 02:06:45;;;;;;;;;;;16.90;99.90;;;;;;5036403;28;19909;-75
2021/07/10 02:09:11;;;;;;;;;;;17.00;99.90;;;;;;5037275;28;19959;-74
2021/07/10 02:11:37;;;;;;;;;;;17.00;99.90;;;;;;5037602;28;19916;-74
2021/07/10 02:14:03;;;;;;;;;;;17.00;99.90;;;;;;5035506;28;19941;-74
2021/07/10 02:16:30;;;;;;;;;;;17.00;99.90;;;;;;5034783;28;19916;-73
2021/07/10 02:18:55;;;;;;;;;;;17.10;99.90;;;;;;5034654;28;19909;-73
2021/07/10 02:21:21;;;;;;;;;;;17.10;99.90;;;;;;5035328;28;19909;-74
2021/07/10 02:23:48;;;;;;;;;;;17.20;99.90;;;;;;5034990;28;19913;-74
2021/07/10 02:26:14;;;;;;;;;;;17.20;99.90;;;;;;5035258;28;19909;-74
2021/07/10 02:28:40;;;;;;;;;;;17.10;99.90;;;;;;5038882;28;20273;-74
2021/07/10 02:31:05;;;;;;;;;;;17.10;99.90;;;;;;5041837;28;19913;-74
2021/07/10 02:33:30;;;;;;;;;;;17.10;99.90;;;;;;5032849;28;19944;-74
2021/07/10 02:35:56;;;;;;;;;;;17.10;99.90;;;;;;5032514;28;19955;-74
2021/07/10 02:38:21;;;;;;;;;;;17.10;99.90;;;;;;5032739;28;20273;-73
2021/07/10 02:40:47;;;;;;;;;;;17.10;99.90;;;;;;5034866;28;20441;-74
2021/07/10 02:43:13;;;;;;;;;;;17.00;99.90;;;;;;5033812;28;20350;-73
2021/07/10 02:45:39;;;;;;;;;;;17.00;99.90;;;;;;5033560;28;20246;-73
2021/07/10 02:48:05;;;;;;;;;;;17.00;99.90;;;;;;5031805;28;19909;-73
2021/07/10 02:50:30;;;;;;;;;;;17.00;99.90;;;;;;5033863;28;20266;-74
2021/07/10 02:52:56;;;;;;;;;;;16.90;99.90;;;;;;5033861;28;19916;-73
2021/07/10 02:55:23;;;;;;;;;;;16.90;99.90;;;;;;5033442;28;19909;-74
2021/07/10 02:57:48;;;;;;;;;;;16.90;99.90;;;;;;5033794;28;19909;-74
2021/07/10 03:00:17;;;;;;;;;;;16.90;99.90;;;;;;5036960;28;20341;-73
2021/07/10 03:02:43;;;;;;;;;;;16.80;99.90;;;;;;5033458;28;19935;-74
2021/07/10 03:05:09;;;;;;;;;;;16.70;99.90;;;;;;5032187;28;19909;-74
2021/07/10 03:07:36;;;;;;;;;;;16.70;99.90;;;;;;5032105;28;20376;-73
2021/07/10 03:10:02;;;;;;;;;;;16.70;99.90;;;;;;5033588;28;19916;-73
2021/07/10 03:12:27;;;;;;;;;;;16.60;99.90;;;;;;5033229;28;20269;-74
2021/07/10 03:14:53;;;;;;;;;;;16.60;99.90;;;;;;5038602;28;19909;-73
2021/07/10 03:17:18;;;;;;;;;;;16.50;99.90;;;;;;5033500;28;20385;-74
2021/07/10 03:19:43;;;;;;;;;;;16.50;99.90;;;;;;5055462;28;19909;-75
2021/07/10 03:22:09;;;;;;;;;;;16.50;99.90;;;;;;5044809;28;19913;-75
2021/07/10 03:24:34;;;;;;;;;;;16.50;99.90;;;;;;5038122;28;19919;-73
2021/07/10 03:27:00;;;;;;;;;;;16.50;99.90;;;;;;5037162;28;19909;-73
2021/07/10 03:29:25;;;;;;;;;;;16.50;99.90;;;;;;5037366;28;19983;-73
2021/07/10 03:31:51;;;;;;;;;;;16.50;99.90;;;;;;5036899;28;20273;-73
2021/07/10 03:34:16;;;;;;;;;;;16.40;99.90;;;;;;5036938;28;19967;-74
2021/07/10 03:36:42;;;;;;;;;;;16.30;99.90;;;;;;5015478;28;19909;-73
2021/07/10 03:39:07;;;;;;;;;;;16.30;99.90;;;;;;5029702;28;20418;-74
2021/07/10 03:41:33;;;;;;;;;;;16.30;99.90;;;;;;5043166;28;20023;-74
2021/07/10 03:43:58;;;;;;;;;;;16.30;99.90;;;;;;5036238;28;19929;-74
2021/07/10 03:46:24;;;;;;;;;;;16.40;99.90;;;;;;5051977;28;19963;-74
2021/07/10 03:48:49;;;;;;;;;;;16.40;99.90;;;;;;5035760;28;19909;-74
2021/07/10 03:51:15;;;;;;;;;;;16.30;99.90;;;;;;5036854;28;19955;-73
2021/07/10 03:53:40;;;;;;;;;;;16.40;99.90;;;;;;5036958;28;19955;-74
2021/07/10 03:56:06;;;;;;;;;;;16.40;99.90;;;;;;5036653;28;19964;-74
2021/07/10 03:58:31;;;;;;;;;;;16.40;99.90;;;;;;5036014;28;19917;-73
2021/07/10 04:00:57;;;;;;;;;;;16.40;99.90;;;;;;5036523;28;19916;-73
2021/07/10 04:03:22;;;;;;;;;;;16.40;99.90;;;;;;5036453;28;20357;-73
2021/07/10 04:05:48;;;;;;;;;;;16.40;99.90;;;;;;5031245;28;19909;-74
2021/07/10 04:08:13;;;;;;;;;;;16.40;99.90;;;;;;5030907;28;19995;-73
2021/07/10 04:10:39;;;;;;;;;;;16.40;99.90;;;;;;5036301;28;20327;-74
2021/07/10 04:13:09;;;;;;;;;;;16.50;99.90;;;;;;5035021;28;19909;-73
2021/07/10 04:15:34;;;;;;;;;;;16.50;99.90;;;;;;5035726;28;19909;-73
2021/07/10 04:18:00;;;;;;;;;;;16.50;99.90;;;;;;5036297;28;19908;-73
2021/07/10 04:20:25;;;;;;;;;;;16.50;99.90;;;;;;5036199;28;19917;-73
2021/07/10 04:22:50;;;;;;;;;;;16.60;99.90;;;;;;5036481;28;20015;-73
2021/07/10 04:25:18;;;;;;;;;;;16.70;99.90;;;;;;5034552;28;19916;-75
2021/07/10 04:27:44;;;;;;;;;;;16.70;99.90;;;;;;5035374;28;19979;-73
2021/07/10 04:30:10;;;;;;;;;;;16.70;99.90;;;;;;5033962;28;20369;-74
2021/07/10 04:32:36;;;;;;;;;;;16.80;99.90;;;;;;5048375;28;19959;-73
2021/07/10 04:35:01;;;;;;;;;;;16.80;99.90;;;;;;5034501;28;19909;-73
2021/07/10 04:37:27;;;;;;;;;;;16.80;99.90;;;;;;5035542;28;19909;-73
2021/07/10 04:39:52;;;;;;;;;;;16.80;99.90;;;;;;5035848;28;19955;-74
2021/07/10 04:42:20;;;;;;;;;;;16.80;99.90;;;;;;5035871;28;20273;-73
2021/07/10 04:44:47;;;;;;;;;;;16.80;99.90;;;;;;5036222;28;19956;-74
2021/07/10 04:47:12;;;;;;;;;;;16.80;99.90;;;;;;5053359;28;19908;-74
2021/07/10 04:49:38;;;;;;;;;;;16.80;99.90;;;;;;5057157;28;19916;-74
2021/07/10 04:52:03;;;;;;;;;;;16.80;99.90;;;;;;5057203;28;19909;-73
2021/07/10 04:54:30;;;;;;;;;;;16.80;99.90;;;;;;5073323;28;19936;-74
2021/07/10 04:56:56;;;;;;;;;;;16.90;99.90;;;;;;5056844;28;19908;-75
2021/07/10 04:59:21;;;;;;;;;;;16.90;99.90;;;;;;5054731;28;19917;-74
2021/07/10 05:01:47;;;;;;;;;;;17.00;99.90;;;;;;5055890;28;19924;-74
2021/07/10 05:04:12;;;;;;;;;;;17.00;99.90;;;;;;5058450;28;19909;-74
2021/07/10 05:06:38;;;;;;;;;;;17.10;99.90;;;;;;5051604;28;19989;-74
2021/07/10 05:09:04;;;;;;;;;;;17.00;99.90;;;;;;5043914;28;20008;-74
2021/07/10 05:11:29;;;;;;;;;;;17.10;99.90;;;;;;5040860;28;19913;-74
2021/07/10 05:13:55;;;;;;;;;;;17.20;99.90;;;;;;5041067;28;20018;-74
2021/07/10 05:16:20;;;;;;;;;;;17.20;99.90;;;;;;5042563;28;20094;-74
2021/07/10 05:18:47;;;;;;;;;;;17.20;99.90;;;;;;5053845;28;19909;-73
2021/07/10 05:21:13;;;;;;;;;;;17.30;99.90;;;;;;5060366;28;19908;-73
2021/07/10 05:23:41;;;;;;;;;;;17.30;99.90;;;;;;5043068;28;19920;-75
2021/07/10 05:26:09;;;;;;;;;;;17.30;99.90;;;;;;5048927;28;19909;-74
2021/07/10 05:28:35;;;;;;;;;;;17.40;99.90;;;;;;5053780;28;19955;-73
2021/07/10 05:31:00;;;;;;;;;;;17.40;99.90;;;;;;5038553;28;19909;-73
2021/07/10 05:33:26;;;;;;;;;;;17.50;99.90;;;;;;5052506;28;19893;-74
2021/07/10 05:35:51;;;;;;;;;;;17.60;99.90;;;;;;5068679;28;20297;-73
2021/07/10 05:38:17;;;;;;;;;;;17.70;99.90;;;;;;5041631;28;19963;-73
2021/07/10 05:40:43;;;;;;;;;;;17.80;99.90;;;;;;5041986;28;19995;-74
2021/07/10 05:43:08;;;;;;;;;;;17.90;99.90;;;;;;5039638;28;19967;-74
2021/07/10 05:45:34;;;;;;;;;;;18.00;99.90;;;;;;5053389;28;19909;-74
2021/07/10 05:48:00;;;;;;;;;;;18.00;99.90;;;;;;5039986;28;19998;-74
2021/07/10 05:50:26;;;;;;;;;;;18.10;99.90;;;;;;5051877;28;19974;-74
2021/07/10 05:52:53;;;;;;;;;;;18.30;99.90;;;;;;5062115;28;19909;-73
2021/07/10 05:55:21;;;;;;;;;;;18.40;99.90;;;;;;5064515;28;19909;-74
2021/07/10 05:57:47;;;;;;;;;;;18.60;99.90;;;;;;5053326;28;19909;-75
2021/07/10 06:00:12;;;;;;;;;;;18.60;99.90;;;;;;5052459;28;20356;-75
2021/07/10 06:02:38;;;;;;;;;;;18.60;99.90;;;;;;5062611;28;19920;-75
2021/07/10 06:05:08;;;;;;;;;;;18.60;99.90;;;;;;5075561;28;19892;-74
2021/07/10 06:07:34;;;;;;;;;;;18.60;99.90;;;;;;5060630;28;19909;-74
2021/07/10 06:09:59;;;;;;;;;;;18.60;99.90;;;;;;5064567;28;19915;-75
2021/07/10 06:12:25;;;;;;;;;;;18.60;99.90;;;;;;5070903;28;19924;-74
2021/07/10 06:14:50;;;;;;;;;;;18.70;99.90;;;;;;5070187;28;19909;-74
2021/07/10 06:17:16;;;;;;;;;;;18.70;99.90;;;;;;5053967;28;19893;-75
2021/07/10 06:19:42;;;;;;;;;;;18.70;99.90;;;;;;5050523;28;19940;-75
2021/07/10 06:22:07;;;;;;;;;;;18.60;99.90;;;;;;5058775;28;19916;-74
2021/07/10 06:24:34;;;;;;;;;;;18.80;99.90;;;;;;5074492;28;19908;-75
2021/07/10 06:27:00;;;;;;;;;;;19.10;99.90;;;;;;5057055;28;19909;-73
2021/07/10 06:29:26;;;;;;;;;;;19.70;99.90;;;;;;5054730;28;19951;-75
2021/07/10 06:31:51;;;;;;;;;;;20.10;99.90;;;;;;5062446;28;19897;-74
2021/07/10 06:34:17;;;;;;;;;;;20.10;99.90;;;;;;5054395;28;19925;-75
2021/07/10 06:36:42;;;;;;;;;;;19.90;99.90;;;;;;5055081;28;19899;-73
2021/07/10 06:39:08;;;;;;;;;;;19.90;99.90;;;;;;5056184;28;19915;-75
2021/07/10 06:41:34;;;;;;;;;;;20.10;99.90;;;;;;5074279;28;19947;-75
2021/07/10 06:44:00;;;;;;;;;;;20.30;99.90;;;;;;5072853;28;19893;-74
2021/07/10 06:46:25;;;;;;;;;;;20.30;99.90;;;;;;5062527;28;19913;-75
2021/07/10 06:48:51;;;;;;;;;;;20.30;99.90;;;;;;5053873;28;19909;-74
2021/07/10 06:51:17;;;;;;;;;;;20.40;99.90;;;;;;5062204;28;19894;-74
2021/07/10 06:53:43;;;;;;;;;;;20.50;99.90;;;;;;5052592;28;19916;-74
2021/07/10 06:56:09;;;;;;;;;;;20.80;99.90;;;;;;5052963;28;19952;-75
2021/07/10 06:58:34;;;;;;;;;;;21.30;99.90;;;;;;5015476;28;1105137;-76
2021/07/10 07:01:00;;;;;;;;;;;21.30;99.90;;;;;;5054646;28;19973;-75
2021/07/10 07:03:25;;;;;;;;;;;21.00;99.90;;;;;;5055593;28;19917;-72
2021/07/10 07:05:51;;;;;;;;;;;20.70;99.90;;;;;;5053319;28;19947;-74
2021/07/10 07:08:17;;;;;;;;;;;20.40;99.90;;;;;;5054987;28;19916;-75
2021/07/10 07:10:43;;;;;;;;;;;20.20;99.90;;;;;;5070852;28;19932;-73
2021/07/10 07:13:08;;;;;;;;;;;20.30;99.90;;;;;;5074297;28;19931;-74
2021/07/10 07:15:34;;;;;;;;;;;20.40;99.90;;;;;;5057968;28;19952;-74
2021/07/10 07:17:59;;;;;;;;;;;20.40;99.90;;;;;;5036135;28;19913;-74
2021/07/10 07:20:26;;;;;;;;;;;20.40;99.90;;;;;;5053631;28;19913;-74
2021/07/10 07:22:52;;;;;;;;;;;20.50;99.90;;;;;;5067528;28;19913;-76
2021/07/10 07:25:20;;;;;;;;;;;20.90;99.90;;;;;;5052643;28;19916;-75
2021/07/10 07:27:52;;;;;;;;;;;20.90;99.90;;;;;;5063310;28;19900;-74
2021/07/10 07:30:19;;;;;;;;;;;20.70;99.90;;;;;;5051276;28;19904;-75
2021/07/10 07:32:45;;;;;;;;;;;20.50;99.90;;;;;;5045344;28;19917;-75
2021/07/10 07:35:11;;;;;;;;;;;20.20;99.90;;;;;;5030400;28;19924;-75
2021/07/10 07:37:36;;;;;;;;;;;20.00;99.90;;;;;;5032887;28;20348;-75
2021/07/10 07:40:04;;;;;;;;;;;19.90;99.90;;;;;;5032072;28;19955;-75
2021/07/10 07:42:29;;;;;;;;;;;19.90;99.90;;;;;;5031618;28;19919;-74
2021/07/10 07:44:55;;;;;;;;;;;20.00;99.90;;;;;;5030972;28;19917;-74
2021/07/10 07:47:20;;;;;;;;;;;20.00;99.90;;;;;;5033435;28;20369;-75
2021/07/10 07:49:46;;;;;;;;;;;20.00;99.90;;;;;;5029451;28;19917;-74
2021/07/10 07:52:12;;;;;;;;;;;20.10;99.90;;;;;;5024656;28;20278;-75
2021/07/10 07:54:38;;;;;;;;;;;20.20;99.90;;;;;;5031746;28;19909;-73
2021/07/10 07:57:04;;;;;;;;;;;20.40;99.90;;;;;;5031954;28;19909;-74
2021/07/10 07:59:30;;;;;;;;;;;20.50;99.90;;;;;;5031341;28;20002;-74
2021/07/10 08:01:55;;;;;;;;;;;20.60;99.90;;;;;;5031502;28;19968;-75
2021/07/10 08:04:21;;;;;;;;;;;20.90;99.90;;;;;;5034681;28;19909;-75
2021/07/10 08:06:47;;;;;;;;;;;20.80;99.90;;;;;;5034107;28;19991;-74
2021/07/10 08:09:12;;;;;;;;;;;20.90;99.90;;;;;;5034743;28;20059;-75
2021/07/10 08:11:38;;;;;;;;;;;21.00;99.90;;;;;;5051601;28;19909;-75
2021/07/10 08:14:03;;;;;;;;;;;21.10;99.90;;;;;;5036082;28;20317;-75
2021/07/10 08:16:29;;;;;;;;;;;21.20;99.90;;;;;;5036955;28;19916;-75
2021/07/10 08:18:55;;;;;;;;;;;21.20;99.90;;;;;;5034564;28;19971;-75
2021/07/10 08:21:21;;;;;;;;;;;21.00;99.90;;;;;;5035937;28;19917;-75
2021/07/10 08:23:47;;;;;;;;;;;21.00;99.90;;;;;;5036115;28;20285;-75
2021/07/10 08:26:13;;;;;;;;;;;20.80;99.90;;;;;;5036271;28;19917;-74
2021/07/10 08:28:39;;;;;;;;;;;20.40;99.90;;;;;;5034852;28;19913;-74
2021/07/10 08:31:05;;;;;;;;;;;20.30;99.90;;;;;;5025440;28;19912;-74
2021/07/10 08:33:31;;;;;;;;;;;20.20;99.90;;;;;;5034578;28;20461;-74
2021/07/10 08:35:56;;;;;;;;;;;20.10;99.90;;;;;;5049220;28;19932;-75
2021/07/10 08:38:22;;;;;;;;;;;20.00;99.90;;;;;;5051346;28;19909;-75
2021/07/10 08:40:50;;;;;;;;;;;20.10;99.90;;;;;;5035859;28;19909;-75
2021/07/10 08:43:15;;;;;;;;;;;20.00;99.90;;;;;;5035654;28;20416;-76
2021/07/10 08:45:44;;;;;;;;;;;20.10;99.90;;;;;;5036972;28;19913;-75
2021/07/10 08:48:09;;;;;;;;;;;20.30;99.90;;;;;;5035787;28;19916;-75
2021/07/10 08:50:35;;;;;;;;;;;20.70;99.90;;;;;;5035894;28;19913;-75
2021/07/10 08:53:02;;;;;;;;;;;20.90;99.90;;;;;;5035391;28;19917;-75
2021/07/10 08:55:28;;;;;;;;;;;20.90;99.90;;;;;;5034409;28;19916;-74
2021/07/10 08:57:53;;;;;;;;;;;20.80;99.90;;;;;;5034809;28;20047;-75
2021/07/10 09:00:30;;;;;;;;;;;20.80;99.90;;;;;;5034964;28;20339;-75
2021/07/10 09:02:56;;;;;;;;;;;20.70;99.90;;;;;;5043019;28;19921;-76
2021/07/10 09:05:23;;;;;;;;;;;20.70;99.90;;;;;;5051024;28;20068;-82
2021/07/10 09:08:08;;;;;;;;;;;20.70;99.90;;;;;;5050024;28;20249;-75
2021/07/10 09:10:35;;;;;;;;;;;21.00;99.90;;;;;;5034679;28;19916;-75
2021/07/10 09:13:01;;;;;;;;;;;21.20;99.90;;;;;;5033205;28;19909;-75
2021/07/10 09:15:26;;;;;;;;;;;21.30;99.90;;;;;;5033624;28;19982;-75
2021/07/10 09:17:53;;;;;;;;;;;21.50;99.90;;;;;;5032796;28;20357;-76
2021/07/10 09:20:23;;;;;;;;;;;21.60;99.90;;;;;;5033152;28;19909;-76
2021/07/10 09:22:49;;;;;;;;;;;21.80;99.90;;;;;;5033248;28;20012;-75
2021/07/10 09:25:29;;;;;;;;;;;22.00;99.90;;;;;;5035222;28;19963;-76
2021/07/10 09:27:55;;;;;;;;;;;22.20;99.90;;;;;;5032823;28;19909;-75
2021/07/10 09:30:34;;;;;;;;;;;22.20;99.90;;;;;;5034942;28;19994;-75
2021/07/10 09:33:16;;;;;;;;;;;22.20;99.90;;;;;;5035380;28;19909;-76
2021/07/10 09:35:48;;;;;;;;;;;22.40;99.90;;;;;;5035274;28;19996;-76
2021/07/10 09:38:17;;;;;;;;;;;22.70;99.90;;;;;;5035143;28;19909;-76
2021/07/10 09:40:54;;;;;;;;;;;23.10;99.90;;;;;;5024292;28;19955;-76
2021/07/10 09:43:23;;;;;;;;;;;23.50;99.90;;;;;;5035582;28;19917;-76
2021/07/10 09:45:49;;;;;;;;;;;23.80;99.90;;;;;;5026361;28;19909;-76
2021/07/10 09:48:14;;;;;;;;;;;23.90;99.90;;;;;;5035001;28;19917;-76
2021/07/10 09:50:40;;;;;;;;;;;24.00;99.90;;;;;;5033171;28;19916;-76
2021/07/10 09:53:19;;;;;;;;;;;24.20;99.90;;;;;;5032818;28;19980;-76
2021/07/10 09:55:45;;;;;;;;;;;24.20;99.90;;;;;;5043112;28;19992;-76
2021/07/10 09:58:12;;;;;;;;;;;24.00;99.90;;;;;;5027697;28;19913;-74
2021/07/10 10:00:39;;;;;;;;;;;23.90;99.90;;;;;;5025712;28;19987;-74
2021/07/10 10:03:05;;;;;;;;;;;23.80;99.90;;;;;;5033552;28;19928;-74
2021/07/10 10:05:31;;;;;;;;;;;23.80;99.90;;;;;;5035163;28;19909;-75
2021/07/10 10:07:59;;;;;;;;;;;23.60;99.90;;;;;;5033809;28;19909;-75
2021/07/10 10:10:24;;;;;;;;;;;23.60;99.90;;;;;;5034559;28;19943;-75
2021/07/10 10:13:05;;;;;;;;;;;23.60;99.90;;;;;;5032160;28;19909;-75
2021/07/10 10:15:31;;;;;;;;;;;23.80;99.90;;;;;;5036174;28;19909;-75
2021/07/10 10:17:57;;;;;;;;;;;23.70;99.90;;;;;;5046646;28;19909;-75
2021/07/10 10:20:23;;;;;;;;;;;23.20;99.90;;;;;;5033842;28;20301;-75
2021/07/10 10:22:49;;;;;;;;;;;23.30;99.90;;;;;;5036256;28;19913;-75
2021/07/10 10:25:15;;;;;;;;;;;23.40;99.90;;;;;;5050336;28;20003;-75
2021/07/10 10:27:42;;;;;;;;;;;23.60;99.90;;;;;;5034265;28;20035;-75
2021/07/10 10:30:08;;;;;;;;;;;23.80;99.90;;;;;;5032117;28;20266;-76
2021/07/10 10:32:34;;;;;;;;;;;24.10;99.90;;;;;;5025950;28;19979;-75
2021/07/10 10:35:00;;;;;;;;;;;24.60;99.90;;;;;;5027573;28;19909;-76
2021/07/10 10:37:26;;;;;;;;;;;25.10;99.90;;;;;;5034762;28;20007;-76
2021/07/10 10:39:52;;;;;;;;;;;25.30;99.90;;;;;;5030762;28;20345;-75
2021/07/10 10:42:20;;;;;;;;;;;25.10;99.90;;;;;;5025268;28;19913;-75
2021/07/10 10:44:49;;;;;;;;;;;24.80;99.90;;;;;;5033695;28;19967;-75
2021/07/10 10:47:15;;;;;;;;;;;24.60;99.90;;;;;;5033571;28;19909;-75
2021/07/10 10:49:41;;;;;;;;;;;24.70;99.90;;;;;;5035684;28;20350;-76
2021/07/10 10:52:35;;;;;;;;;;;24.80;99.90;;;;;;5044245;28;19909;-75
2021/07/10 10:55:06;;;;;;;;;;;25.20;99.90;;;;;;5034667;28;19913;-76
2021/07/10 10:57:33;;;;;;;;;;;25.20;99.90;;;;;;5032641;28;20250;-76
2021/07/10 10:59:59;;;;;;;;;;;25.10;99.90;;;;;;5032881;28;20389;-76
2021/07/10 11:02:25;;;;;;;;;;;24.90;99.90;;;;;;5034651;28;19920;-76
2021/07/10 11:04:56;;;;;;;;;;;24.70;99.90;;;;;;5035119;28;19955;-76
2021/07/10 11:07:26;;;;;;;;;;;24.70;99.90;;;;;;5033699;28;19913;-76
2021/07/10 11:10:14;;;;;;;;;;;24.60;99.90;;;;;;5025662;28;20320;-76
2021/07/10 11:12:46;;;;;;;;;;;24.60;99.90;;;;;;5032279;28;19913;-75
2021/07/10 11:15:34;;;;;;;;;;;24.60;99.90;;;;;;5032313;28;20223;-76
2021/07/10 11:18:03;;;;;;;;;;;24.20;99.90;;;;;;5034388;28;19916;-76
2021/07/10 11:20:41;;;;;;;;;;;23.90;99.90;;;;;;5035362;28;20274;-76
2021/07/10 11:23:10;;;;;;;;;;;23.60;99.90;;;;;;5033459;28;19913;-76
2021/07/10 11:25:47;;;;;;;;;;;23.70;99.90;;;;;;5033490;28;19960;-75
2021/07/10 11:28:16;;;;;;;;;;;23.90;99.90;;;;;;5034164;28;19909;-74
2021/07/10 11:31:08;;;;;;;;;;;24.10;99.90;;;;;;5032699;28;20000;-75
2021/07/10 11:33:52;;;;;;;;;;;24.40;99.90;;;;;;5022301;28;19909;-76
2021/07/10 11:36:30;;;;;;;;;;;24.20;99.90;;;;;;5032578;28;19919;-76
2021/07/10 11:38:56;;;;;;;;;;;24.40;99.90;;;;;;5034568;28;19912;-76
2021/07/10 11:41:32;;;;;;;;;;;24.60;99.90;;;;;;5028356;28;19916;-76
2021/07/10 11:44:11;;;;;;;;;;;24.50;99.90;;;;;;5045410;28;20010;-76
2021/07/10 11:46:55;;;;;;;;;;;24.50;99.90;;;;;;5058793;28;19912;-76
2021/07/10 11:49:36;;;;;;;;;;;24.20;99.90;;;;;;5060406;28;20012;-77
2021/07/10 11:52:01;;;;;;;;;;;23.60;99.90;;;;;;5049504;28;19917;-76
2021/07/10 11:54:27;;;;;;;;;;;23.60;99.90;;;;;;5054855;28;19944;-76
2021/07/10 11:56:53;;;;;;;;;;;23.90;99.90;;;;;;5049650;28;19917;-76
2021/07/10 11:59:18;;;;;;;;;;;24.30;99.90;;;;;;5053020;28;19917;-76
2021/07/10 12:01:44;;;;;;;;;;;24.50;99.90;;;;;;5055161;28;19972;-77
2021/07/10 12:04:10;;;;;;;;;;;24.50;99.90;;;;;;5055744;28;19897;-76
2021/07/10 12:06:35;;;;;;;;;;;24.40;99.90;;;;;;5056448;28;19913;-76
2021/07/10 12:09:01;;;;;;;;;;;24.40;99.90;;;;;;5055746;28;19979;-76
2021/07/10 12:11:27;;;;;;;;;;;24.20;99.90;;;;;;5055449;28;19957;-77
2021/07/10 12:13:53;;;;;;;;;;;24.00;99.90;;;;;;5056739;28;19923;-77
2021/07/10 12:16:18;;;;;;;;;;;24.00;99.90;;;;;;5056660;28;19964;-77
2021/07/10 12:18:51;;;;;;;;;;;24.00;99.90;;;;;;5055996;28;19923;-77
2021/07/10 12:21:16;;;;;;;;;;;24.10;99.90;;;;;;5051011;28;19897;-77
2021/07/10 12:23:49;;;;;;;;;;;24.40;99.90;;;;;;5054887;28;19901;-76
2021/07/10 12:26:16;;;;;;;;;;;24.60;99.90;;;;;;5050691;28;19897;-77
2021/07/10 12:28:41;;;;;;;;;;;24.90;99.90;;;;;;5047517;28;19913;-76
2021/07/10 12:31:16;;;;;;;;;;;24.80;99.90;;;;;;5048855;28;21289;-77
2021/07/10 12:33:44;;;;;;;;;;;24.90;99.90;;;;;;5048258;28;19913;-77
2021/07/10 12:36:09;;;;;;;;;;;25.10;99.90;;;;;;5063690;28;19920;-77
2021/07/10 12:38:36;;;;;;;;;;;25.10;99.90;;;;;;5050445;28;19921;-80
2021/07/10 12:41:18;;;;;;;;;;;25.30;99.90;;;;;;5069376;28;19939;-79
2021/07/10 12:43:44;;;;;;;;;;;25.30;99.90;;;;;;5068859;28;19921;-78
2021/07/10 12:46:10;;;;;;;;;;;25.20;99.90;;;;;;5059095;28;19913;-80
2021/07/10 12:48:35;;;;;;;;;;;25.30;99.00;;;;;;5058675;28;20019;-76
2021/07/10 12:51:01;;;;;;;;;;;25.10;99.90;;;;;;5059452;28;19971;-75
2021/07/10 12:53:31;;;;;;;;;;;24.70;99.90;;;;;;5041519;28;19916;-77
2021/07/10 12:56:24;;;;;;;;;;;24.60;99.90;;;;;;5046862;28;19916;-75
2021/07/10 12:58:51;;;;;;;;;;;24.40;99.40;;;;;;5059479;28;21092;-76
2021/07/10 13:01:22;;;;;;;;;;;24.10;99.50;;;;;;5042677;28;19978;-76
2021/07/10 13:03:48;;;;;;;;;;;24.20;99.90;;;;;;5042991;28;19968;-77
2021/07/10 13:06:14;;;;;;;;;;;23.90;99.90;;;;;;5041842;28;20677;-75
2021/07/10 13:08:48;;;;;;;;;;;23.80;99.90;;;;;;5058225;28;19901;-75
2021/07/10 13:11:14;;;;;;;;;;;23.90;99.90;;;;;;5041963;28;19913;-76
2021/07/10 13:13:41;;;;;;;;;;;24.00;99.90;;;;;;5040421;28;19909;-76
2021/07/10 13:16:06;;;;;;;;;;;24.10;99.90;;;;;;5043322;28;19909;-75
2021/07/10 13:18:34;;;;;;;;;;;24.00;99.90;;;;;;5053407;28;19984;-75
2021/07/10 13:21:02;;;;;;;;;;;24.10;99.90;;;;;;5058927;28;19976;-75
2021/07/10 13:23:30;;;;;;;;;;;24.10;99.90;;;;;;5070992;28;19913;-75
2021/07/10 13:25:55;;;;;;;;;;;24.20;99.90;;;;;;5068603;28;19917;-75
2021/07/10 13:28:24;;;;;;;;;;;24.10;99.90;;;;;;5051130;28;20349;-75
2021/07/10 13:30:50;;;;;;;;;;;23.80;99.90;;;;;;5047648;28;19944;-75
2021/07/10 13:33:26;;;;;;;;;;;23.80;99.90;;;;;;5048983;28;19920;-75
2021/07/10 13:36:02;;;;;;;;;;;23.80;99.90;;;;;;5037130;28;19909;-75
2021/07/10 13:38:31;;;;;;;;;;;23.90;99.90;;;;;;5033167;28;19909;-75
2021/07/10 13:41:09;;;;;;;;;;;24.20;99.90;;;;;;5051550;28;19909;-76
2021/07/10 13:43:35;;;;;;;;;;;24.30;99.90;;;;;;5044874;28;19917;-74
2021/07/10 13:46:10;;;;;;;;;;;24.30;99.90;;;;;;5056443;28;19900;-75
2021/07/10 13:48:36;;;;;;;;;;;24.20;99.90;;;;;;5055946;28;19936;-75
2021/07/10 13:51:03;;;;;;;;;;;24.20;99.90;;;;;;5054559;28;19999;-75
2021/07/10 13:53:28;;;;;;;;;;;24.40;99.80;;;;;;5055149;28;19897;-74
2021/07/10 13:55:54;;;;;;;;;;;24.30;99.50;;;;;;5055602;28;19928;-74
2021/07/10 13:58:26;;;;;;;;;;;24.30;99.10;;;;;;5055351;28;19917;-74
2021/07/10 14:00:52;;;;;;;;;;;24.20;99.00;;;;;;5053787;28;19924;-74
2021/07/10 14:03:18;;;;;;;;;;;24.10;99.00;;;;;;5054088;28;20011;-75
2021/07/10 14:05:44;;;;;;;;;;;24.10;98.30;;;;;;5054389;28;19913;-75
2021/07/10 14:08:17;;;;;;;;;;;24.00;98.90;;;;;;5053644;28;19909;-75
2021/07/10 14:10:44;;;;;;;;;;;24.00;99.90;;;;;;5056081;28;19920;-74
2021/07/10 14:13:11;;;;;;;;;;;23.90;99.90;;;;;;5053114;28;20011;-75
2021/07/10 14:18:21;;;;;;;;;;;23.60;99.90;;;;;;5051943;28;19919;-74